Gardner, CO (81040)

9:12 PM MDT on May 27, 2017 (GMT -0600)
Casa de Kestrel, Gardner, CO | | Change Station

Elev 7014 ft 37.78 °N, 105.17 °W | Updated 2 seconds ago

Rain
Rain
45.9 °F
Feels Like 46 °F
N
3.0
Wind Variable Wind from WSW

Today
High -- | Low -- °F
--% Chance of Precip.
Yesterday
High -- | Low -- °F
Precip. -- in
Pressure 29.99 in
Visibility 10.0 miles
Clouds Mostly Cloudy 10000 ft
Windchill 46 °F
Dew Point 36 °F
Humidity 70%
Rainfall 0.00 in
Snow Depth Not available.
5:42 AM 8:13 PM
Waxing Crescent, 8% visible
METAR KALS 280252Z AUTO 12007KT 10SM BKN100 12/03 A3021 RMK AO2 SLP155 T01170028 53025
Pressure 29.99 in
Visibility 10.0 miles
Clouds Mostly Cloudy 10000 ft
Windchill 46 °F
Dew Point 36 °F
Humidity 70%
Rainfall 0.00 in
Snow Depth Not available.
5:42 AM 8:13 PM
Waxing Crescent, 8% visible
METAR KALS 280252Z AUTO 12007KT 10SM BKN100 12/03 A3021 RMK AO2 SLP155 T01170028 53025

Get Severe Weather Alerts

Thanks for signing up!

Be on the lookout for a verification email in your inbox.

You'll start receiving the daily forecast at 6 AM.

×

10-Day Weather Forecast

Almanac

Astronomy

May. 27, 2017 Rise Set
Actual Time
Civil Twilight
Nautical Twilight
Astronomical Twilight
Moon
Length of Visible Light
Length of Day
Tomorrow will be .
, % of the Moon is Illuminated

Today's Extremes

State Highs State Lows

Community

WunderPhotos

Category 6

Welcome to Category 6. This is the collective home for Weather Underground's featured writeups by Dr. Jeff Masters (right), Bob Henson (left), Chris Burt, and other regular contributors.

Nearby

Air Quality

  Air Quality AQ Index Pollutant
Not available.

Snow Depth

Station Depth Elevation

Earthquake Activity

City Distance Mag. Time & Date
Minimum magnitude displayed is 2.5.

Coastal Water Temperatures

Place Temperature

Stations

Nearby Weather Stations

Station Location Temp. Windchill Dew Point Humidity Wind Precip. Elev Updated Type
                   

Watches & Warnings

There are currently no watches in effect.